Time;durP1;ratioP1;P1;durP2;ratioP2;P2;SDS_P1;SDS_P2;PMS_P1;PMS_P2;Temp;Humidity;BMP_temperature;BMP_pressure;BME280_temperature;BME280_humidity;BME280_pressure;Samples;Min_cycle;Max_cycle;Signal;HPM_P1;HPM_P2
2022/12/11 00:01:08;;;;;;;;;;;18.20;62.50;;;;;;4510285;31;20031;-72
2022/12/11 00:03:33;;;;;;;;;;;18.10;62.50;;;;;;4511422;31;20126;-73
2022/12/11 00:06:03;;;;;;;;;;;18.10;62.50;;;;;;4512693;31;20092;-72
2022/12/11 00:08:28;;;;;;;;;;;18.10;62.50;;;;;;4512160;31;20052;-72
2022/12/11 00:10:58;;;;;;;;;;;18.10;62.60;;;;;;4511288;31;20041;-72
2022/12/11 00:13:24;;;;;;;;;;;18.10;62.50;;;;;;4511721;31;20028;-72
2022/12/11 00:15:50;;;;;;;;;;;18.00;63.30;;;;;;4511424;31;20025;-72
2022/12/11 00:18:17;;;;;;;;;;;18.00;62.40;;;;;;4513073;31;20229;-72
2022/12/11 00:20:43;;;;;;;;;;;18.00;62.40;;;;;;4510479;31;20501;-72
2022/12/11 00:23:12;;;;;;;;;;;18.00;62.50;;;;;;4510940;31;20032;-72
2022/12/11 00:25:46;;;;;;;;;;;18.00;62.50;;;;;;4512371;31;20041;-72
2022/12/11 00:28:13;;;;;;;;;;;18.00;62.50;;;;;;4512080;31;20068;-72
2022/12/11 00:30:40;;;;;;;;;;;18.00;62.40;;;;;;4511981;31;20155;-72
2022/12/11 00:33:05;;;;;;;;;;;18.00;62.40;;;;;;4511981;31;20044;-72
2022/12/11 00:35:31;;;;;;;;;;;17.90;62.30;;;;;;4512029;31;20017;-72
2022/12/11 00:37:57;;;;;;;;;;;17.90;62.20;;;;;;4501197;31;20080;-72
2022/12/11 00:40:23;;;;;;;;;;;17.90;62.30;;;;;;4499601;31;20032;-72
2022/12/11 00:42:49;;;;;;;;;;;17.90;62.30;;;;;;4502533;31;20013;-72
2022/12/11 00:45:18;;;;;;;;;;;17.90;62.10;;;;;;4499694;31;20029;-72
2022/12/11 00:47:44;;;;;;;;;;;17.90;62.00;;;;;;4508559;31;20039;-72
2022/12/11 00:50:11;;;;;;;;;;;17.80;62.10;;;;;;4509666;31;20103;-72
2022/12/11 00:52:39;;;;;;;;;;;17.80;62.20;;;;;;4510474;31;20064;-72
2022/12/11 00:55:05;;;;;;;;;;;17.80;62.20;;;;;;4510761;31;20037;-72
2022/12/11 00:57:31;;;;;;;;;;;17.80;62.10;;;;;;4511174;31;20028;-72
2022/12/11 00:59:57;;;;;;;;;;;17.80;62.10;;;;;;4510728;31;20049;-72
2022/12/11 01:02:24;;;;;;;;;;;17.80;62.00;;;;;;4484845;31;20037;-72
2022/12/11 01:04:50;;;;;;;;;;;17.80;62.00;;;;;;4505442;31;20046;-72
2022/12/11 01:07:16;;;;;;;;;;;17.70;62.00;;;;;;4509765;31;20036;-72
2022/12/11 01:12:27;;;;;;;;;;;17.70;62.00;;;;;;4510560;31;20564;-72
2022/12/11 01:14:53;;;;;;;;;;;17.70;62.00;;;;;;4510506;31;20044;-72
2022/12/11 01:17:19;;;;;;;;;;;17.70;62.00;;;;;;4511203;31;20185;-72
2022/12/11 01:19:45;;;;;;;;;;;17.70;61.90;;;;;;4510868;31;20589;-72
2022/12/11 01:22:11;;;;;;;;;;;17.70;62.00;;;;;;4511646;31;20079;-72
2022/12/11 01:24:36;;;;;;;;;;;17.70;62.00;;;;;;4508535;31;20074;-72
2022/12/11 01:27:02;;;;;;;;;;;17.60;61.90;;;;;;4503963;31;20021;-72
2022/12/11 01:29:28;;;;;;;;;;;17.60;62.00;;;;;;4502270;31;20480;-72
2022/12/11 01:31:54;;;;;;;;;;;17.60;62.00;;;;;;4498660;31;20039;-72
2022/12/11 01:34:20;;;;;;;;;;;17.60;61.90;;;;;;4502895;31;20025;-72
2022/12/11 01:36:46;;;;;;;;;;;17.60;61.90;;;;;;4499839;31;20036;-72
2022/12/11 01:39:12;;;;;;;;;;;17.60;62.00;;;;;;4502566;31;20181;-72
2022/12/11 01:41:37;;;;;;;;;;;17.60;61.90;;;;;;4500401;31;20409;-72
2022/12/11 01:44:06;;;;;;;;;;;17.60;62.00;;;;;;4500554;31;20501;-72
2022/12/11 01:46:33;;;;;;;;;;;17.50;61.90;;;;;;4501788;31;20457;-72
2022/12/11 01:48:59;;;;;;;;;;;17.50;61.90;;;;;;4498429;31;20425;-72
2022/12/11 01:51:26;;;;;;;;;;;17.50;61.90;;;;;;4502872;31;20020;-72
2022/12/11 01:53:56;;;;;;;;;;;17.50;62.00;;;;;;4499566;31;20033;-72
2022/12/11 01:56:22;;;;;;;;;;;17.50;61.90;;;;;;4502498;31;20033;-72
2022/12/11 01:58:55;;;;;;;;;;;17.50;61.90;;;;;;4500464;31;20021;-71
2022/12/11 02:01:26;;;;;;;;;;;17.50;61.90;;;;;;4511222;31;20043;-72
2022/12/11 02:03:54;;;;;;;;;;;17.50;61.90;;;;;;4513362;31;20090;-72
2022/12/11 02:06:37;;;;;;;;;;;17.50;61.90;;;;;;4512652;31;20109;-72
2022/12/11 02:09:05;;;;;;;;;;;17.40;61.80;;;;;;4512776;31;20581;-72
2022/12/11 02:11:39;;;;;;;;;;;17.40;61.80;;;;;;4513026;31;20036;-72
2022/12/11 02:14:11;;;;;;;;;;;17.50;61.90;;;;;;4512299;31;20349;-72
2022/12/11 02:16:43;;;;;;;;;;;17.40;61.90;;;;;;4513274;31;20025;-72
2022/12/11 02:19:15;;;;;;;;;;;17.40;61.80;;;;;;4513676;31;20043;-72
2022/12/11 02:21:43;;;;;;;;;;;17.40;61.80;;;;;;4515725;31;20029;-72
2022/12/11 02:24:27;;;;;;;;;;;17.40;61.80;;;;;;4515882;31;20425;-72
2022/12/11 02:26:59;;;;;;;;;;;17.40;61.80;;;;;;4515140;31;20087;-72
2022/12/11 02:29:32;;;;;;;;;;;17.40;61.80;;;;;;4515779;31;20056;-72
2022/12/11 02:32:16;;;;;;;;;;;17.40;61.90;;;;;;4515031;31;20370;-72
2022/12/11 02:34:45;;;;;;;;;;;17.40;61.90;;;;;;4515644;31;20393;-72
2022/12/11 02:37:20;;;;;;;;;;;17.40;62.00;;;;;;4515819;31;20095;-72
2022/12/11 02:39:48;;;;;;;;;;;17.40;61.90;;;;;;4515128;31;20072;-72
2022/12/11 02:42:17;;;;;;;;;;;17.40;61.90;;;;;;4515833;31;20051;-72
2022/12/11 02:44:43;;;;;;;;;;;17.40;61.80;;;;;;4514831;31;20029;-72
2022/12/11 02:47:11;;;;;;;;;;;17.40;61.80;;;;;;4515568;31;20108;-72
2022/12/11 02:49:37;;;;;;;;;;;17.40;61.80;;;;;;4515381;31;20029;-72
2022/12/11 02:52:03;;;;;;;;;;;17.50;61.70;;;;;;4515161;31;20501;-72
2022/12/11 02:54:32;;;;;;;;;;;17.50;61.70;;;;;;4515073;31;20155;-72
2022/12/11 02:57:12;;;;;;;;;;;17.50;61.70;;;;;;4514860;31;20040;-72
2022/12/11 02:59:40;;;;;;;;;;;17.50;61.60;;;;;;4514440;31;20036;-72
2022/12/11 03:02:06;;;;;;;;;;;17.50;61.60;;;;;;4513792;31;20020;-72
2022/12/11 03:04:34;;;;;;;;;;;17.50;61.60;;;;;;4515185;31;20409;-72
2022/12/11 03:07:10;;;;;;;;;;;17.50;61.50;;;;;;4515174;31;20033;-72
2022/12/11 03:09:41;;;;;;;;;;;17.50;61.50;;;;;;4513485;31;20086;-72
2022/12/11 03:12:09;;;;;;;;;;;17.50;61.50;;;;;;4514616;31;20223;-72
2022/12/11 03:14:35;;;;;;;;;;;17.50;61.50;;;;;;4514177;31;20040;-72
2022/12/11 03:17:27;;;;;;;;;;;17.50;61.40;;;;;;4515445;31;20021;-72
2022/12/11 03:19:59;;;;;;;;;;;17.50;61.40;;;;;;4513374;31;20020;-72
2022/12/11 03:22:25;;;;;;;;;;;17.50;61.30;;;;;;4514680;31;20048;-72
2022/12/11 03:24:53;;;;;;;;;;;17.50;61.30;;;;;;4515303;31;20017;-72
2022/12/11 03:27:19;;;;;;;;;;;17.50;61.20;;;;;;4514396;31;20086;-72
2022/12/11 03:29:51;;;;;;;;;;;17.50;61.20;;;;;;4514453;31;20025;-72
2022/12/11 03:32:21;;;;;;;;;;;17.50;61.20;;;;;;4514759;31;20405;-72
2022/12/11 03:35:10;;;;;;;;;;;17.50;61.10;;;;;;4514824;31;20025;-72
2022/12/11 03:37:39;;;;;;;;;;;17.50;61.00;;;;;;4515302;31;20071;-72
2022/12/11 03:40:09;;;;;;;;;;;17.50;61.00;;;;;;4513682;31;20488;-72
2022/12/11 03:42:36;;;;;;;;;;;17.50;61.00;;;;;;4514792;31;20037;-72
2022/12/11 03:45:03;;;;;;;;;;;17.50;61.00;;;;;;4513459;31;20097;-72
2022/12/11 03:47:30;;;;;;;;;;;17.50;60.90;;;;;;4510104;31;20040;-72
2022/12/11 03:49:56;;;;;;;;;;;17.50;60.90;;;;;;4511511;31;20387;-72
2022/12/11 03:52:26;;;;;;;;;;;17.50;60.90;;;;;;4510871;31;20025;-72
2022/12/11 03:54:53;;;;;;;;;;;17.50;60.90;;;;;;4513445;31;20054;-72
2022/12/11 03:57:21;;;;;;;;;;;17.50;60.90;;;;;;4510785;31;20131;-72
2022/12/11 03:59:47;;;;;;;;;;;17.60;60.90;;;;;;4512728;31;20146;-72
2022/12/11 04:02:13;;;;;;;;;;;17.60;60.80;;;;;;4509345;31;20024;-72
2022/12/11 04:04:40;;;;;;;;;;;17.60;60.70;;;;;;4511855;31;20125;-72
2022/12/11 04:07:07;;;;;;;;;;;17.60;61.60;;;;;;4512773;31;20093;-72
2022/12/11 04:09:33;;;;;;;;;;;17.60;60.60;;;;;;4510623;31;20039;-72
2022/12/11 04:11:59;;;;;;;;;;;17.60;60.60;;;;;;4513497;31;20025;-72
2022/12/11 04:17:10;;;;;;;;;;;17.60;60.60;;;;;;4512383;31;20102;-72
2022/12/11 04:25:07;;;;;;;;;;;17.60;60.70;;;;;;4513087;31;20040;-72
2022/12/11 04:27:48;;;;;;;;;;;17.60;60.50;;;;;;4512496;31;20044;-72
2022/12/11 04:30:16;;;;;;;;;;;17.60;60.50;;;;;;4509024;31;20126;-73
2022/12/11 04:32:42;;;;;;;;;;;17.60;60.50;;;;;;4507415;31;20036;-72
2022/12/11 04:35:15;;;;;;;;;;;17.60;60.50;;;;;;4504518;31;20111;-73
2022/12/11 04:37:40;;;;;;;;;;;17.60;60.50;;;;;;4509554;31;20016;-72
2022/12/11 04:40:08;;;;;;;;;;;17.60;60.50;;;;;;4505963;31;20013;-72
2022/12/11 04:42:33;;;;;;;;;;;17.60;60.50;;;;;;4488838;31;20029;-72
2022/12/11 04:44:59;;;;;;;;;;;17.50;60.50;;;;;;4506634;31;20035;-72
2022/12/11 04:47:26;;;;;;;;;;;17.50;60.40;;;;;;4503183;31;20021;-72
2022/12/11 04:49:52;;;;;;;;;;;17.50;60.50;;;;;;4504695;31;20021;-72
2022/12/11 04:52:18;;;;;;;;;;;17.50;60.40;;;;;;4499058;31;20031;-72
2022/12/11 04:54:43;;;;;;;;;;;17.50;60.40;;;;;;4509302;31;20025;-73
2022/12/11 04:57:10;;;;;;;;;;;17.50;60.50;;;;;;4506289;31;20044;-72
2022/12/11 04:59:36;;;;;;;;;;;17.50;60.50;;;;;;4510176;31;20481;-72
2022/12/11 05:02:02;;;;;;;;;;;17.50;60.50;;;;;;4510629;31;20040;-72
2022/12/11 05:04:32;;;;;;;;;;;17.50;60.50;;;;;;4511855;31;20028;-73
2022/12/11 05:06:58;;;;;;;;;;;17.50;60.50;;;;;;4512881;31;20029;-72
2022/12/11 05:09:24;;;;;;;;;;;17.50;60.60;;;;;;4512068;31;20031;-73
2022/12/11 05:11:51;;;;;;;;;;;17.40;60.50;;;;;;4506675;31;20106;-72
2022/12/11 05:14:17;;;;;;;;;;;17.40;60.60;;;;;;4498079;31;20511;-72
2022/12/11 05:16:42;;;;;;;;;;;17.40;60.60;;;;;;4500381;31;20025;-72
2022/12/11 05:19:09;;;;;;;;;;;17.40;60.60;;;;;;4498266;31;20029;-72
2022/12/11 05:21:34;;;;;;;;;;;17.40;60.60;;;;;;4500192;31;20080;-72
2022/12/11 05:24:00;;;;;;;;;;;17.40;60.60;;;;;;4497704;31;20155;-72
2022/12/11 05:26:26;;;;;;;;;;;17.40;60.70;;;;;;4499748;31;20036;-72
2022/12/11 05:28:53;;;;;;;;;;;17.30;60.60;;;;;;4498037;31;20029;-72
2022/12/11 05:31:20;;;;;;;;;;;17.40;61.20;;;;;;4498633;31;20036;-71
2022/12/11 05:33:47;;;;;;;;;;;17.40;60.70;;;;;;4499738;31;20025;-71
2022/12/11 05:36:17;;;;;;;;;;;17.30;60.70;;;;;;4498443;31;20532;-72
2022/12/11 05:38:44;;;;;;;;;;;17.30;60.70;;;;;;4498832;31;20155;-72
2022/12/11 05:41:11;;;;;;;;;;;17.30;60.70;;;;;;4498676;31;20171;-72
2022/12/11 05:43:37;;;;;;;;;;;17.30;60.70;;;;;;4498384;31;20021;-72
2022/12/11 05:46:07;;;;;;;;;;;17.30;60.70;;;;;;4498847;31;20070;-72
2022/12/11 05:48:34;;;;;;;;;;;17.30;60.70;;;;;;4499396;31;20089;-71
2022/12/11 05:51:01;;;;;;;;;;;17.30;60.80;;;;;;4499117;31;20040;-72
2022/12/11 05:53:27;;;;;;;;;;;17.30;60.70;;;;;;4498869;31;20025;-72
2022/12/11 05:55:53;;;;;;;;;;;17.30;60.80;;;;;;4502251;31;20170;-72
2022/12/11 05:58:20;;;;;;;;;;;17.30;60.80;;;;;;4501798;31;20025;-72
2022/12/11 06:00:46;;;;;;;;;;;17.20;60.70;;;;;;4502275;31;20051;-72
2022/12/11 06:03:14;;;;;;;;;;;17.20;60.70;;;;;;4502060;31;20039;-73
2022/12/11 06:05:40;;;;;;;;;;;17.20;60.70;;;;;;4502164;31;20025;-72
2022/12/11 06:08:06;;;;;;;;;;;17.20;60.70;;;;;;4504641;31;20032;-72
2022/12/11 06:10:32;;;;;;;;;;;17.20;60.70;;;;;;4515603;31;20401;-72
2022/12/11 06:12:59;;;;;;;;;;;17.20;60.70;;;;;;4515993;31;20021;-72
2022/12/11 06:15:25;;;;;;;;;;;17.20;60.70;;;;;;4515700;31;20077;-72
2022/12/11 06:17:51;;;;;;;;;;;17.20;60.70;;;;;;4515704;31;20039;-72
2022/12/11 06:20:16;;;;;;;;;;;17.20;60.80;;;;;;4516224;31;20037;-72
2022/12/11 06:22:42;;;;;;;;;;;17.20;60.70;;;;;;4515443;31;20025;-72
2022/12/11 06:25:11;;;;;;;;;;;17.20;60.70;;;;;;4504918;31;20029;-72
2022/12/11 06:27:36;;;;;;;;;;;17.20;60.70;;;;;;4515421;31;20020;-73
2022/12/11 06:30:02;;;;;;;;;;;17.20;60.70;;;;;;4514617;31;20013;-72
2022/12/11 06:32:38;;;;;;;;;;;17.20;60.70;;;;;;4516087;31;20041;-72
2022/12/11 06:35:04;;;;;;;;;;;17.20;60.70;;;;;;4515172;31;20033;-72
2022/12/11 06:37:30;;;;;;;;;;;17.20;60.70;;;;;;4515208;31;20151;-72
2022/12/11 06:39:58;;;;;;;;;;;17.20;60.70;;;;;;4512430;31;20043;-72
2022/12/11 06:42:23;;;;;;;;;;;17.20;60.70;;;;;;4513865;31;20033;-74
2022/12/11 06:44:49;;;;;;;;;;;17.10;60.60;;;;;;4513833;31;20088;-72
2022/12/11 06:47:15;;;;;;;;;;;17.10;60.70;;;;;;4514624;31;20033;-71
2022/12/11 06:49:41;;;;;;;;;;;17.10;60.70;;;;;;4513080;31;20393;-72
2022/12/11 06:52:07;;;;;;;;;;;17.10;60.70;;;;;;4511237;31;20515;-73
2022/12/11 06:54:32;;;;;;;;;;;17.10;60.60;;;;;;4513923;31;20148;-72
2022/12/11 06:56:58;;;;;;;;;;;17.10;60.60;;;;;;4512006;31;20596;-72
2022/12/11 06:59:25;;;;;;;;;;;17.10;60.70;;;;;;4512682;31;20037;-72
2022/12/11 07:02:12;;;;;;;;;;;17.10;60.60;;;;;;4512769;31;20047;-72
2022/12/11 07:04:37;;;;;;;;;;;17.10;60.60;;;;;;4513663;31;20025;-71
2022/12/11 07:07:03;;;;;;;;;;;17.10;60.60;;;;;;4511714;31;20362;-71
2022/12/11 07:09:29;;;;;;;;;;;17.10;60.50;;;;;;4510650;31;20167;-72
2022/12/11 07:11:55;;;;;;;;;;;17.10;60.50;;;;;;4513969;31;20135;-71
2022/12/11 07:14:23;;;;;;;;;;;17.10;60.50;;;;;;4513667;31;20029;-71
2022/12/11 07:16:49;;;;;;;;;;;17.10;60.50;;;;;;4514156;31;20035;-72
2022/12/11 07:19:15;;;;;;;;;;;17.10;60.50;;;;;;4514227;31;20017;-72
2022/12/11 07:21:41;;;;;;;;;;;17.10;60.50;;;;;;4513662;31;20104;-72
2022/12/11 07:24:07;;;;;;;;;;;17.10;60.50;;;;;;4498112;31;20029;-71
2022/12/11 07:26:40;;;;;;;;;;;17.10;60.50;;;;;;4510645;31;20017;-71
2022/12/11 07:29:06;;;;;;;;;;;17.10;60.50;;;;;;4513777;31;20029;-72
2022/12/11 07:31:32;;;;;;;;;;;17.10;60.40;;;;;;4513196;31;20047;-71
2022/12/11 07:34:00;;;;;;;;;;;17.10;60.40;;;;;;4513370;31;20032;-72
2022/12/11 07:36:28;;;;;;;;;;;17.10;60.40;;;;;;4513903;31;20025;-71
2022/12/11 07:38:54;;;;;;;;;;;17.10;60.40;;;;;;4513425;31;20037;-71
2022/12/11 07:41:20;;;;;;;;;;;17.10;60.40;;;;;;4514365;31;20039;-71
2022/12/11 07:43:46;;;;;;;;;;;17.10;60.40;;;;;;4513065;31;20037;-72
2022/12/11 07:46:13;;;;;;;;;;;17.10;60.40;;;;;;4514351;31;20066;-72
2022/12/11 07:48:40;;;;;;;;;;;17.00;60.40;;;;;;4512794;31;20032;-71
2022/12/11 07:51:09;;;;;;;;;;;17.00;60.40;;;;;;4514433;31;20087;-72
2022/12/11 07:53:35;;;;;;;;;;;17.00;60.40;;;;;;4513468;31;20017;-71
2022/12/11 07:56:01;;;;;;;;;;;17.00;60.40;;;;;;4513454;31;20106;-72
2022/12/11 07:58:27;;;;;;;;;;;17.00;60.30;;;;;;4513986;31;20389;-71
2022/12/11 08:00:53;;;;;;;;;;;17.00;60.30;;;;;;4512804;31;20059;-72
2022/12/11 08:03:19;;;;;;;;;;;17.00;60.30;;;;;;4514454;31;20482;-72
2022/12/11 08:05:48;;;;;;;;;;;17.00;60.20;;;;;;4511436;31;20017;-72
2022/12/11 08:08:14;;;;;;;;;;;17.10;60.20;;;;;;4514046;31;20037;-71
2022/12/11 08:10:40;;;;;;;;;;;17.10;60.20;;;;;;4513992;31;20028;-71
2022/12/11 08:13:06;;;;;;;;;;;17.10;60.20;;;;;;4514063;31;20060;-71
2022/12/11 08:15:34;;;;;;;;;;;17.10;60.20;;;;;;4512659;31;20489;-71
2022/12/11 08:18:07;;;;;;;;;;;17.10;60.20;;;;;;4513597;31;20036;-69
2022/12/11 08:20:32;;;;;;;;;;;17.00;61.70;;;;;;4514686;31;20078;-69
2022/12/11 08:22:58;;;;;;;;;;;17.00;61.00;;;;;;4513437;31;20048;-68
2022/12/11 08:25:25;;;;;;;;;;;17.00;61.40;;;;;;4514286;31;20032;-69
2022/12/11 08:27:51;;;;;;;;;;;17.00;61.40;;;;;;4513821;31;20009;-69
2022/12/11 08:30:16;;;;;;;;;;;17.00;61.70;;;;;;4513698;31;20017;-69
2022/12/11 08:32:42;;;;;;;;;;;17.00;61.80;;;;;;4514076;31;20013;-69
2022/12/11 08:35:08;;;;;;;;;;;17.00;61.90;;;;;;4512226;31;20031;-69
2022/12/11 08:37:34;;;;;;;;;;;17.00;62.00;;;;;;4514230;31;20094;-69
2022/12/11 08:40:07;;;;;;;;;;;17.10;62.30;;;;;;4513187;31;20647;-68
2022/12/11 08:42:33;;;;;;;;;;;17.10;62.30;;;;;;4513000;31;20086;-69
2022/12/11 08:44:59;;;;;;;;;;;17.10;62.00;;;;;;4512305;31;20041;-68
2022/12/11 08:47:25;;;;;;;;;;;17.20;61.40;;;;;;4513463;31;20078;-69
2022/12/11 08:49:51;;;;;;;;;;;17.30;61.20;;;;;;4513905;31;20028;-69
2022/12/11 08:52:17;;;;;;;;;;;17.50;61.00;;;;;;4512116;31;20028;-69
2022/12/11 08:54:43;;;;;;;;;;;17.60;60.70;;;;;;4512992;31;20159;-69
2022/12/11 08:57:10;;;;;;;;;;;17.70;60.30;;;;;;4512797;31;20025;-69
2022/12/11 08:59:36;;;;;;;;;;;17.90;60.10;;;;;;4513850;31;20036;-69
2022/12/11 09:02:03;;;;;;;;;;;18.00;59.80;;;;;;4511306;31;20048;-69
2022/12/11 09:04:31;;;;;;;;;;;18.20;59.50;;;;;;4507367;31;20526;-69
2022/12/11 09:06:56;;;;;;;;;;;18.20;59.30;;;;;;4503643;31;20012;-69
2022/12/11 09:09:22;;;;;;;;;;;18.30;59.60;;;;;;4509616;31;20036;-69
2022/12/11 09:11:48;;;;;;;;;;;18.30;59.60;;;;;;4512943;31;20024;-68
2022/12/11 09:14:15;;;;;;;;;;;18.30;60.20;;;;;;4512725;31;20071;-68
2022/12/11 09:16:41;;;;;;;;;;;18.20;60.50;;;;;;4513463;31;20033;-69
2022/12/11 09:19:07;;;;;;;;;;;18.20;61.00;;;;;;4513059;31;20033;-69
2022/12/11 09:21:33;;;;;;;;;;;18.20;61.10;;;;;;4513342;31;20036;-69
2022/12/11 09:24:00;;;;;;;;;;;18.10;61.10;;;;;;4499402;31;20091;-69
2022/12/11 09:26:27;;;;;;;;;;;18.10;60.70;;;;;;4512796;31;20412;-69
2022/12/11 09:28:54;;;;;;;;;;;18.20;60.80;;;;;;4513212;31;20021;-69
2022/12/11 09:31:22;;;;;;;;;;;18.20;60.60;;;;;;4512686;31;20024;-69
2022/12/11 09:33:48;;;;;;;;;;;18.30;60.60;;;;;;4513470;31;20029;-69
2022/12/11 09:36:14;;;;;;;;;;;18.40;60.40;;;;;;4511481;31;20033;-69
2022/12/11 09:38:42;;;;;;;;;;;18.50;60.40;;;;;;4512829;31;20035;-69
2022/12/11 09:41:20;;;;;;;;;;;18.60;60.20;;;;;;4513352;31;20032;-69
2022/12/11 09:43:46;;;;;;;;;;;18.80;60.20;;;;;;4512506;31;20033;-69
2022/12/11 09:46:13;;;;;;;;;;;18.90;60.00;;;;;;4513369;31;20025;-69
2022/12/11 09:48:40;;;;;;;;;;;19.00;59.70;;;;;;4512443;31;20091;-70
2022/12/11 09:51:13;;;;;;;;;;;19.10;59.50;;;;;;4513501;31;20040;-69
2022/12/11 09:53:39;;;;;;;;;;;19.20;59.20;;;;;;4512647;31;20094;-69
2022/12/11 09:56:05;;;;;;;;;;;19.30;59.10;;;;;;4512946;31;20036;-69
2022/12/11 09:58:49;;;;;;;;;;;19.40;58.90;;;;;;4496348;31;20282;-72
2022/12/11 10:01:30;;;;;;;;;;;19.40;58.70;;;;;;4504980;31;20043;-72
2022/12/11 10:03:56;;;;;;;;;;;19.50;58.70;;;;;;4506958;31;20039;-72
2022/12/11 10:06:44;;;;;;;;;;;19.50;58.80;;;;;;4505016;31;20029;-71
2022/12/11 10:09:10;;;;;;;;;;;19.50;58.80;;;;;;4508363;31;20033;-70
2022/12/11 10:11:39;;;;;;;;;;;19.60;58.80;;;;;;4513193;31;20017;-69
2022/12/11 10:14:05;;;;;;;;;;;19.50;58.80;;;;;;4512272;31;20032;-69
2022/12/11 10:16:34;;;;;;;;;;;19.50;58.80;;;;;;4512880;31;20036;-69
2022/12/11 10:19:00;;;;;;;;;;;19.50;58.90;;;;;;4512641;31;20040;-69
2022/12/11 10:21:28;;;;;;;;;;;19.50;58.90;;;;;;4512796;31;20064;-69
2022/12/11 10:23:58;;;;;;;;;;;19.50;58.90;;;;;;4512621;31;20089;-68
2022/12/11 10:26:24;;;;;;;;;;;19.50;59.10;;;;;;4511684;31;20084;-69
2022/12/11 10:28:50;;;;;;;;;;;19.50;59.10;;;;;;4510822;31;20298;-69
2022/12/11 10:31:17;;;;;;;;;;;19.50;59.10;;;;;;4510750;31;20040;-69
2022/12/11 10:33:58;;;;;;;;;;;19.50;59.20;;;;;;4511680;31;20029;-69
2022/12/11 10:36:35;;;;;;;;;;;19.50;59.20;;;;;;4508393;31;20274;-69
2022/12/11 10:39:02;;;;;;;;;;;19.50;59.20;;;;;;4509334;31;20041;-69
2022/12/11 10:41:30;;;;;;;;;;;19.50;59.30;;;;;;4513854;31;20086;-69
2022/12/11 10:43:56;;;;;;;;;;;19.60;59.30;;;;;;4512066;31;20039;-68
2022/12/11 10:46:24;;;;;;;;;;;19.60;59.20;;;;;;4514371;31;20460;-69
2022/12/11 10:48:54;;;;;;;;;;;19.60;59.30;;;;;;4510333;31;20037;-68
2022/12/11 10:51:22;;;;;;;;;;;19.60;59.30;;;;;;4501986;31;20033;-70
2022/12/11 10:53:52;;;;;;;;;;;19.60;59.30;;;;;;4501448;31;20041;-70
2022/12/11 10:56:28;;;;;;;;;;;19.60;59.30;;;;;;4501326;31;20017;-68
2022/12/11 10:58:55;;;;;;;;;;;19.60;59.30;;;;;;4497426;31;20021;-69
2022/12/11 11:01:23;;;;;;;;;;;19.60;59.30;;;;;;4500197;31;20135;-68
2022/12/11 11:03:51;;;;;;;;;;;19.60;59.40;;;;;;4513991;31;20041;-68
2022/12/11 11:06:19;;;;;;;;;;;19.60;59.30;;;;;;4501196;31;20059;-68
2022/12/11 11:08:57;;;;;;;;;;;19.60;59.30;;;;;;4509760;31;20492;-68
2022/12/11 11:11:35;;;;;;;;;;;19.60;59.30;;;;;;4515188;31;20105;-68
2022/12/11 11:14:14;;;;;;;;;;;19.60;59.30;;;;;;4506856;31;20025;-68
2022/12/11 11:16:42;;;;;;;;;;;19.60;59.30;;;;;;4515463;31;20033;-68
2022/12/11 11:19:15;;;;;;;;;;;19.60;59.30;;;;;;4506963;31;20139;-68
2022/12/11 11:21:45;;;;;;;;;;;19.60;59.30;;;;;;4512865;31;20048;-68
2022/12/11 11:24:20;;;;;;;;;;;19.70;59.40;;;;;;4515149;31;20398;-68
2022/12/11 11:26:46;;;;;;;;;;;19.70;59.40;;;;;;4513182;31;20151;-69
2022/12/11 11:29:22;;;;;;;;;;;19.70;59.40;;;;;;4501162;31;20109;-67
2022/12/11 11:31:48;;;;;;;;;;;19.70;59.40;;;;;;4514440;31;20043;-71
2022/12/11 11:34:17;;;;;;;;;;;19.70;59.50;;;;;;4514914;31;20033;-71
2022/12/11 11:36:55;;;;;;;;;;;19.70;59.60;;;;;;4514731;31;20066;-70
2022/12/11 11:39:36;;;;;;;;;;;19.70;59.60;;;;;;4514328;31;20037;-70
2022/12/11 11:42:01;;;;;;;;;;;19.60;59.60;;;;;;4515000;31;20021;-70
2022/12/11 11:44:33;;;;;;;;;;;19.60;59.70;;;;;;4514162;31;20027;-71
2022/12/11 11:47:02;;;;;;;;;;;19.60;59.80;;;;;;4514458;31;20035;-71
2022/12/11 11:49:34;;;;;;;;;;;19.50;59.80;;;;;;4514691;31;20029;-70
2022/12/11 11:52:06;;;;;;;;;;;19.60;59.90;;;;;;4513000;31;20043;-72
2022/12/11 11:54:35;;;;;;;;;;;19.50;60.00;;;;;;4513482;31;20028;-70
2022/12/11 11:57:05;;;;;;;;;;;19.50;59.80;;;;;;4512221;31;20029;-72
2022/12/11 11:59:38;;;;;;;;;;;19.50;59.80;;;;;;4512020;31;20025;-70
2022/12/11 12:02:12;;;;;;;;;;;19.50;59.90;;;;;;4512655;31;20012;-70
2022/12/11 12:04:38;;;;;;;;;;;19.40;59.90;;;;;;4512713;31;20028;-70
2022/12/11 12:07:16;;;;;;;;;;;19.40;60.00;;;;;;4512941;31;20043;-70
2022/12/11 12:09:45;;;;;;;;;;;19.30;60.00;;;;;;4513452;31;20069;-70
2022/12/11 12:12:15;;;;;;;;;;;19.30;60.20;;;;;;4514737;31;20024;-70
2022/12/11 12:15:04;;;;;;;;;;;19.20;60.20;;;;;;4513591;31;20102;-70
2022/12/11 12:17:39;;;;;;;;;;;19.20;60.40;;;;;;4509727;31;20850;-70
2022/12/11 12:20:24;;;;;;;;;;;19.10;60.50;;;;;;4514397;31;20095;-70
2022/12/11 12:23:08;;;;;;;;;;;19.10;60.60;;;;;;4513446;31;20047;-70
2022/12/11 12:25:44;;;;;;;;;;;19.00;60.80;;;;;;4504140;31;20044;-70
2022/12/11 12:28:13;;;;;;;;;;;18.90;60.90;;;;;;4513984;31;20082;-70
2022/12/11 12:30:48;;;;;;;;;;;18.90;61.00;;;;;;4512593;31;20039;-70
2022/12/11 12:33:19;;;;;;;;;;;18.80;62.00;;;;;;4513301;31;20033;-70
2022/12/11 12:35:53;;;;;;;;;;;18.80;61.20;;;;;;4513399;31;20521;-70
2022/12/11 12:38:29;;;;;;;;;;;18.70;61.30;;;;;;4513806;31;20024;-70
2022/12/11 12:41:02;;;;;;;;;;;18.70;61.40;;;;;;4513961;31;20036;-70
2022/12/11 12:43:52;;;;;;;;;;;18.70;61.50;;;;;;4513348;31;20562;-70
2022/12/11 12:46:21;;;;;;;;;;;18.70;61.50;;;;;;4514075;31;20037;-70
2022/12/11 12:48:47;;;;;;;;;;;18.60;61.60;;;;;;4513373;31;20404;-70
2022/12/11 12:51:15;;;;;;;;;;;18.60;61.70;;;;;;4513984;31;20040;-70
2022/12/11 12:53:42;;;;;;;;;;;18.60;61.90;;;;;;4513405;31;20040;-70
2022/12/11 12:56:10;;;;;;;;;;;18.50;62.00;;;;;;4513393;31;20023;-70
2022/12/11 12:58:40;;;;;;;;;;;18.50;61.90;;;;;;4512876;31;20082;-70
2022/12/11 13:01:06;;;;;;;;;;;18.50;62.00;;;;;;4502000;31;20224;-70
2022/12/11 13:03:35;;;;;;;;;;;18.50;62.10;;;;;;4514000;31;20684;-70
2022/12/11 13:06:06;;;;;;;;;;;18.50;62.20;;;;;;4512992;31;20028;-70
2022/12/11 13:08:44;;;;;;;;;;;18.40;62.00;;;;;;4512403;31;20040;-70
2022/12/11 13:11:11;;;;;;;;;;;18.40;62.20;;;;;;4512454;31;20032;-70
2022/12/11 13:13:38;;;;;;;;;;;18.40;62.20;;;;;;4513174;31;20456;-70
2022/12/11 13:16:22;;;;;;;;;;;18.40;62.00;;;;;;4512398;31;20151;-70
2022/12/11 13:18:51;;;;;;;;;;;18.40;62.20;;;;;;4513149;31;20044;-70
2022/12/11 13:21:26;;;;;;;;;;;18.40;62.20;;;;;;4513513;31;20021;-70
2022/12/11 13:23:52;;;;;;;;;;;18.40;62.20;;;;;;4513445;31;20041;-70
2022/12/11 13:26:30;;;;;;;;;;;18.40;62.20;;;;;;4511785;31;20016;-70
2022/12/11 13:29:01;;;;;;;;;;;18.40;62.20;;;;;;4504184;31;20055;-70
2022/12/11 13:31:36;;;;;;;;;;;18.40;62.20;;;;;;4511642;31;20389;-70
2022/12/11 13:34:15;;;;;;;;;;;18.40;62.30;;;;;;4513428;31;20032;-70
2022/12/11 13:36:48;;;;;;;;;;;18.30;62.30;;;;;;4513133;31;20029;-70
2022/12/11 13:39:16;;;;;;;;;;;18.30;62.30;;;;;;4512871;31;20033;-70
2022/12/11 13:41:55;;;;;;;;;;;18.30;62.20;;;;;;4512530;31;20445;-70
2022/12/11 13:44:24;;;;;;;;;;;18.30;62.30;;;;;;4512667;31;20044;-70
2022/12/11 13:46:51;;;;;;;;;;;18.30;62.30;;;;;;4513056;31;20043;-70
2022/12/11 13:49:20;;;;;;;;;;;18.30;62.40;;;;;;4511969;31;20036;-70
2022/12/11 13:51:56;;;;;;;;;;;18.30;62.40;;;;;;4512870;31;20017;-70
2022/12/11 13:54:23;;;;;;;;;;;18.30;62.30;;;;;;4502788;31;20041;-70
2022/12/11 13:57:05;;;;;;;;;;;18.30;62.30;;;;;;4511485;31;20477;-70
2022/12/11 13:59:30;;;;;;;;;;;18.30;62.50;;;;;;4502931;31;20039;-70
2022/12/11 14:01:58;;;;;;;;;;;18.30;62.30;;;;;;4511591;31;20032;-70
2022/12/11 14:04:26;;;;;;;;;;;18.30;62.50;;;;;;4512970;31;20021;-70
2022/12/11 14:06:55;;;;;;;;;;;18.20;62.60;;;;;;4513141;31;20024;-70
2022/12/11 14:09:23;;;;;;;;;;;18.20;62.40;;;;;;4512629;31;20037;-70
2022/12/11 14:11:49;;;;;;;;;;;18.20;62.50;;;;;;4502522;31;20567;-70
2022/12/11 14:14:18;;;;;;;;;;;18.20;62.40;;;;;;4513388;31;20153;-70
2022/12/11 14:16:45;;;;;;;;;;;18.20;62.50;;;;;;4515947;31;20071;-70
2022/12/11 14:19:14;;;;;;;;;;;18.20;62.40;;;;;;4515674;31;20028;-70
2022/12/11 14:21:39;;;;;;;;;;;18.20;62.40;;;;;;4515667;31;20084;-70
2022/12/11 14:24:05;;;;;;;;;;;18.20;62.40;;;;;;4514960;31;20118;-70
2022/12/11 14:26:33;;;;;;;;;;;18.20;63.20;;;;;;4515211;31;20067;-70
2022/12/11 14:28:58;;;;;;;;;;;18.20;62.40;;;;;;4516351;31;20036;-70
2022/12/11 14:31:33;;;;;;;;;;;18.20;62.40;;;;;;4515384;31;20029;-70
2022/12/11 14:34:05;;;;;;;;;;;18.20;62.50;;;;;;4505265;31;20044;-70
2022/12/11 14:36:32;;;;;;;;;;;18.20;62.50;;;;;;4514460;31;20025;-70